Terminal Aerodrome Forecast
Issued by NWS

Home | Current Version | Previous Version | Text Only | Print | Product List | Glossary On
Versions: 1 2 3 4 5 6 7 8 9 10 11 12 13 14 15 16 17 18 19 20
000
FTUS41 KPBZ 251134
TAFLBE
TAF
KLBE 251134Z 2512/2612 06006KT P6SM -SHRA OVC040
     FM251400 22007KT P6SM VCSH BKN040
     FM260000 25005KT P6SM -SHRA OVC030
     FM260300 24005KT P6SM -SHRA OVC010=

USA.gov is the U.S. government's official web portal to all federal, state and local government web resources and services.